Time;durP1;ratioP1;P1;durP2;ratioP2;P2;SDS_P1;SDS_P2;PMS_P1;PMS_P2;Temp;Humidity;BMP_temperature;BMP_pressure;BME280_temperature;BME280_humidity;BME280_pressure;Samples;Min_cycle;Max_cycle;Signal;HPM_P1;HPM_P2
2023/05/15 00:00:55;;;;;;;10.38;8.52;;;10.10;99.90;;;;;;5088241;28;20027;-58
2023/05/15 00:03:21;;;;;;;16.90;9.23;;;10.10;99.90;;;;;;5094484;28;20032;-57
2023/05/15 00:05:47;;;;;;;9.05;7.75;;;10.10;99.90;;;;;;5092544;28;20459;-57
2023/05/15 00:08:12;;;;;;;8.70;7.88;;;10.10;99.90;;;;;;5094031;28;20028;-57
2023/05/15 00:10:38;;;;;;;8.88;8.02;;;10.10;99.90;;;;;;5094162;28;20502;-57
2023/05/15 00:13:04;;;;;;;9.55;8.23;;;10.10;99.90;;;;;;5094476;28;20024;-57
2023/05/15 00:15:30;;;;;;;9.48;7.85;;;10.10;99.90;;;;;;5094624;28;20034;-57
2023/05/15 00:17:55;;;;;;;9.00;7.28;;;10.00;99.90;;;;;;5094305;28;20028;-53
2023/05/15 00:20:21;;;;;;;5.97;5.47;;;10.10;99.90;;;;;;5094467;28;20540;-53
2023/05/15 00:22:46;;;;;;;7.05;6.35;;;10.10;99.90;;;;;;5076117;28;20028;-57
2023/05/15 00:25:12;;;;;;;5.65;5.15;;;10.10;99.90;;;;;;5094462;28;20036;-57
2023/05/15 00:27:53;;;;;;;6.03;5.53;;;10.10;99.90;;;;;;5093966;28;20024;-57
2023/05/15 00:30:19;;;;;;;5.85;5.35;;;10.10;99.90;;;;;;5094203;28;20028;-58
2023/05/15 00:32:44;;;;;;;5.88;5.35;;;10.00;99.90;;;;;;5075896;28;20058;-57
2023/05/15 00:35:10;;;;;;;5.30;4.80;;;10.00;99.90;;;;;;5094249;28;20402;-57
2023/05/15 00:37:35;;;;;;;6.57;5.88;;;10.00;99.90;;;;;;5094011;28;20031;-55
2023/05/15 00:40:01;;;;;;;9.07;5.20;;;10.00;99.90;;;;;;5094210;28;20127;-57
2023/05/15 00:42:27;;;;;;;6.35;5.75;;;10.00;99.90;;;;;;5075858;28;20024;-57
2023/05/15 00:44:55;;;;;;;5.60;5.10;;;10.00;99.90;;;;;;5093669;28;20107;-56
2023/05/15 00:47:22;;;;;;;6.15;5.13;;;9.90;99.90;;;;;;5093903;28;20608;-56
2023/05/15 00:49:50;;;;;;;6.35;5.07;;;9.90;99.90;;;;;;5093866;28;20016;-54
2023/05/15 00:52:16;;;;;;;6.07;5.50;;;9.90;99.90;;;;;;5093719;28;20027;-57
2023/05/15 00:54:42;;;;;;;4.60;4.20;;;9.90;99.90;;;;;;5093936;28;20028;-55
2023/05/15 00:57:08;;;;;;;7.50;5.60;;;9.90;99.90;;;;;;5094099;28;20031;-55
2023/05/15 00:59:35;;;;;;;6.25;5.65;;;9.80;99.90;;;;;;5093454;28;20475;-54
2023/05/15 01:02:00;;;;;;;8.00;6.25;;;9.80;99.90;;;;;;5093777;28;20360;-57
2023/05/15 01:04:26;;;;;;;6.60;6.00;;;9.80;99.90;;;;;;5090233;28;20024;-53
2023/05/15 01:06:52;;;;;;;6.05;5.53;;;9.80;99.90;;;;;;5113927;28;20776;-56
2023/05/15 01:09:19;;;;;;;6.82;6.13;;;9.80;99.90;;;;;;5114060;28;20019;-55
2023/05/15 01:11:48;;;;;;;6.10;5.57;;;9.80;99.90;;;;;;5113734;28;20031;-56
2023/05/15 01:14:13;;;;;;;9.82;5.65;;;9.80;99.90;;;;;;5113847;28;20022;-56
2023/05/15 01:16:48;;;;;;;7.07;6.38;;;9.90;99.90;;;;;;5095453;28;20118;-57
2023/05/15 01:19:14;;;;;;;7.22;6.28;;;9.80;99.90;;;;;;5113881;28;20398;-58
2023/05/15 01:22:09;;;;;;;6.60;5.93;;;9.90;99.90;;;;;;5095408;28;20031;-54
2023/05/15 01:24:59;;;;;;;13.10;6.22;;;9.90;99.90;;;;;;5113517;28;20039;-55
2023/05/15 01:27:38;;;;;;;5.10;4.60;;;9.80;99.90;;;;;;5113752;28;20020;-55
2023/05/15 01:30:16;;;;;;;4.80;4.38;;;10.00;99.90;;;;;;5113440;28;20023;-55
2023/05/15 01:33:15;;;;;;;5.07;4.68;;;10.00;99.90;;;;;;5113258;28;20046;-56
2023/05/15 01:35:55;;;;;;;7.70;5.15;;;10.00;99.90;;;;;;5113351;28;20027;-55
2023/05/15 01:38:37;;;;;;;6.47;5.72;;;10.10;99.90;;;;;;5094811;28;20024;-53
2023/05/15 01:41:41;;;;;;;6.45;5.88;;;10.10;99.90;;;;;;5112837;28;20115;-56
2023/05/15 01:44:21;;;;;;;7.28;6.07;;;10.10;99.90;;;;;;5113171;28;20027;-55
2023/05/15 01:46:54;;;;;;;6.88;6.18;;;10.10;99.90;;;;;;5112975;28;20027;-57
2023/05/15 01:49:24;;;;;;;6.88;6.00;;;10.10;99.90;;;;;;5112745;28;20080;-57
2023/05/15 01:52:13;;;;;;;7.50;6.20;;;10.10;99.90;;;;;;5112988;28;20026;-57
2023/05/15 01:54:46;;;;;;;6.07;5.38;;;10.10;99.90;;;;;;5112717;28;20019;-57
2023/05/15 01:57:13;;;;;;;6.07;5.43;;;10.10;99.90;;;;;;5113167;28;20666;-58
2023/05/15 01:59:40;;;;;;;5.25;4.85;;;10.10;99.90;;;;;;5112582;28;20036;-57
2023/05/15 02:02:06;;;;;;;5.78;5.28;;;10.00;99.90;;;;;;5112586;28;20496;-57
2023/05/15 02:04:33;;;;;;;5.43;4.93;;;10.00;99.90;;;;;;5111621;28;20028;-58
2023/05/15 02:07:00;;;;;;;5.15;4.65;;;10.00;99.90;;;;;;5112698;28;20039;-53
2023/05/15 02:09:27;;;;;;;4.70;4.30;;;10.00;99.90;;;;;;5112629;28;20343;-56
2023/05/15 02:11:54;;;;;;;5.05;4.63;;;9.90;99.90;;;;;;5112629;28;20054;-57
2023/05/15 02:14:21;;;;;;;4.80;4.40;;;9.90;99.90;;;;;;5094287;28;20479;-57
2023/05/15 02:16:47;;;;;;;4.45;4.15;;;10.00;99.90;;;;;;5112390;28;20035;-55
2023/05/15 02:19:13;;;;;;;4.65;4.25;;;10.00;99.90;;;;;;5112476;28;20088;-55
2023/05/15 02:21:38;;;;;;;5.03;4.63;;;10.00;99.90;;;;;;5094146;28;20452;-55
2023/05/15 02:24:04;;;;;;;5.75;4.20;;;10.00;99.90;;;;;;5112286;28;20036;-56
2023/05/15 02:26:32;;;;;;;5.10;4.53;;;10.10;99.90;;;;;;5112371;28;20032;-56
2023/05/15 02:29:35;;;;;;;6.43;4.78;;;10.00;99.90;;;;;;5112232;28;20027;-53
2023/05/15 02:32:15;;;;;;;5.32;4.82;;;10.00;99.90;;;;;;5076691;28;20035;-57
2023/05/15 02:34:51;;;;;;;4.75;4.32;;;10.00;99.90;;;;;;5112064;28;20030;-56
2023/05/15 02:37:23;;;;;;;4.72;4.32;;;10.00;99.90;;;;;;5111776;28;20066;-57
2023/05/15 02:39:53;;;;;;;4.95;4.55;;;10.10;99.90;;;;;;5111966;28;20126;-55
2023/05/15 02:42:20;;;;;;;5.30;4.55;;;10.10;99.90;;;;;;5112128;28;20375;-58
2023/05/15 02:44:47;;;;;;;4.00;3.67;;;10.10;99.90;;;;;;5112128;28;20034;-55
2023/05/15 02:47:13;;;;;;;3.85;3.55;;;10.10;99.90;;;;;;5111828;28;20032;-56
2023/05/15 02:49:40;;;;;;;3.28;3.08;;;10.10;99.90;;;;;;5112310;28;20016;-56
2023/05/15 02:52:06;;;;;;;3.55;3.25;;;10.10;99.90;;;;;;5112039;28;20401;-55
2023/05/15 02:54:31;;;;;;;4.40;3.67;;;10.10;99.90;;;;;;5111885;28;20036;-55
2023/05/15 02:56:57;;;;;;;3.78;3.35;;;10.00;99.90;;;;;;5111966;28;20076;-56
2023/05/15 02:59:23;;;;;;;3.80;3.22;;;10.00;99.90;;;;;;5111993;28;20032;-55
2023/05/15 03:01:49;;;;;;;3.13;2.88;;;10.00;99.90;;;;;;5111915;28;20428;-54
2023/05/15 03:04:15;;;;;;;3.33;3.08;;;10.00;99.90;;;;;;5111700;28;20028;-56
2023/05/15 03:06:46;;;;;;;6.60;3.60;;;10.00;99.90;;;;;;5111694;28;20020;-55
2023/05/15 03:09:11;;;;;;;3.35;3.05;;;10.00;99.90;;;;;;5111942;28;20023;-54
2023/05/15 03:11:42;;;;;;;3.15;2.85;;;10.00;99.90;;;;;;5111788;28;20020;-57
2023/05/15 03:14:08;;;;;;;5.65;3.03;;;10.00;99.90;;;;;;5112029;28;20328;-55
2023/05/15 03:16:35;;;;;;;3.97;3.20;;;9.90;99.90;;;;;;5115049;28;20027;-56
2023/05/15 03:19:01;;;;;;;3.00;2.80;;;9.90;99.90;;;;;;5116081;28;20100;-58
2023/05/15 03:21:27;;;;;;;8.20;3.20;;;9.90;99.90;;;;;;5116173;28;20106;-56
2023/05/15 03:23:52;;;;;;;5.25;3.55;;;9.90;99.90;;;;;;5116031;28;20243;-55
2023/05/15 03:26:18;;;;;;;3.05;2.85;;;9.80;99.90;;;;;;5116064;28;20016;-55
2023/05/15 03:28:44;;;;;;;3.60;3.30;;;9.90;99.90;;;;;;5115643;28;20019;-58
2023/05/15 03:31:09;;;;;;;3.22;3.03;;;9.80;99.90;;;;;;5115875;28;20011;-56
2023/05/15 03:33:35;;;;;;;3.67;3.40;;;9.90;99.90;;;;;;5115725;28;20028;-57
2023/05/15 03:36:00;;;;;;;3.50;3.30;;;9.90;99.90;;;;;;5116007;28;20020;-54
2023/05/15 03:38:26;;;;;;;3.65;3.40;;;9.90;99.90;;;;;;5115117;28;20055;-57
2023/05/15 03:40:52;;;;;;;3.92;3.53;;;9.90;99.90;;;;;;5115651;28;20059;-52
2023/05/15 03:43:17;;;;;;;3.90;3.60;;;9.90;99.90;;;;;;5097098;28;20036;-56
2023/05/15 03:45:44;;;;;;;3.65;3.40;;;9.80;99.90;;;;;;5115326;28;20084;-58
2023/05/15 03:48:10;;;;;;;3.75;3.45;;;9.90;99.90;;;;;;5115277;28;20056;-54
2023/05/15 03:50:35;;;;;;;3.70;3.40;;;9.90;99.90;;;;;;5115301;28;20051;-54
2023/05/15 03:53:01;;;;;;;3.10;2.90;;;10.00;99.90;;;;;;5097061;28;20077;-56
2023/05/15 03:55:27;;;;;;;3.85;3.47;;;10.00;99.90;;;;;;5115619;28;20023;-56
2023/05/15 03:57:53;;;;;;;3.08;2.88;;;10.00;99.90;;;;;;5114916;28;20027;-56
2023/05/15 04:00:19;;;;;;;3.72;3.10;;;10.00;99.90;;;;;;5115250;28;20035;-56
2023/05/15 04:02:44;;;;;;;3.78;3.47;;;10.00;99.90;;;;;;5114971;28;20023;-57
2023/05/15 04:05:10;;;;;;;4.00;3.47;;;10.00;99.90;;;;;;5115067;28;20351;-54
2023/05/15 04:07:36;;;;;;;6.50;3.67;;;10.00;99.90;;;;;;5115436;28;20024;-55
2023/05/15 04:10:02;;;;;;;3.60;3.30;;;10.00;99.90;;;;;;5115283;28;20091;-55
2023/05/15 04:12:30;;;;;;;3.70;3.40;;;10.00;99.90;;;;;;5096587;28;20362;-58
2023/05/15 04:15:00;;;;;;;3.78;3.47;;;9.90;99.90;;;;;;5115059;28;20418;-56
2023/05/15 04:17:25;;;;;;;3.58;3.30;;;10.00;99.90;;;;;;5096235;28;20050;-56
2023/05/15 04:19:51;;;;;;;3.47;3.17;;;10.00;99.90;;;;;;5114532;28;20036;-57
2023/05/15 04:22:17;;;;;;;3.47;3.17;;;9.90;99.90;;;;;;5114544;28;20343;-54
2023/05/15 04:24:43;;;;;;;3.67;3.38;;;10.00;99.90;;;;;;5114154;28;20047;-57
2023/05/15 04:27:08;;;;;;;4.20;3.25;;;10.00;99.90;;;;;;5096089;28;20019;-56
2023/05/15 04:29:34;;;;;;;3.25;3.05;;;10.00;99.90;;;;;;5114364;28;20035;-57
2023/05/15 04:32:00;;;;;;;3.47;3.17;;;10.00;99.90;;;;;;5114668;28;20028;-56
2023/05/15 04:34:25;;;;;;;4.05;3.67;;;10.10;99.90;;;;;;5114560;28;20032;-57
2023/05/15 04:36:51;;;;;;;4.25;2.85;;;10.00;99.90;;;;;;5114009;28;20027;-56
2023/05/15 04:39:16;;;;;;;3.45;3.00;;;10.00;99.90;;;;;;5114354;28;20097;-56
2023/05/15 04:41:42;;;;;;;8.75;3.30;;;10.00;99.90;;;;;;5114175;28;20036;-58
2023/05/15 04:44:08;;;;;;;3.22;2.70;;;10.00;99.90;;;;;;5114302;28;20073;-57
2023/05/15 04:46:36;;;;;;;4.18;3.53;;;10.10;99.90;;;;;;5095808;28;20460;-56
2023/05/15 04:49:01;;;;;;;3.25;3.05;;;10.00;99.90;;;;;;5114056;28;20077;-58
2023/05/15 04:51:27;;;;;;;3.25;2.90;;;10.00;99.90;;;;;;5114387;28;20023;-57
2023/05/15 04:53:52;;;;;;;3.15;2.85;;;10.00;99.90;;;;;;5114024;28;20066;-54
2023/05/15 04:56:18;;;;;;;3.33;3.00;;;10.00;99.90;;;;;;5114215;28;20066;-56
2023/05/15 04:58:44;;;;;;;3.63;3.33;;;10.10;99.90;;;;;;5113550;28;20447;-57
2023/05/15 05:01:09;;;;;;;4.13;3.67;;;10.20;99.90;;;;;;5113919;28;20115;-57
2023/05/15 05:03:35;;;;;;;3.33;2.70;;;10.20;99.90;;;;;;5113377;28;20063;-55
2023/05/15 05:06:00;;;;;;;2.80;2.60;;;10.40;99.90;;;;;;5095235;28;20059;-58
2023/05/15 05:08:26;;;;;;;3.22;2.92;;;10.40;99.90;;;;;;5111792;27;20098;-56
2023/05/15 05:10:59;;;;;;;2.90;2.70;;;10.40;99.90;;;;;;5115267;27;20466;-56
2023/05/15 05:13:24;;;;;;;3.42;3.10;;;10.50;99.90;;;;;;5111519;28;20016;-57
2023/05/15 05:15:50;;;;;;;3.53;3.22;;;10.60;99.90;;;;;;5112757;28;20443;-58
2023/05/15 05:18:16;;;;;;;3.95;2.75;;;10.60;99.90;;;;;;5116681;27;20015;-59
2023/05/15 05:20:47;;;;;;;4.72;2.90;;;10.60;99.90;;;;;;5112134;28;20023;-59
2023/05/15 05:23:16;;;;;;;3.42;3.13;;;10.60;99.90;;;;;;5112161;28;20023;-58
2023/05/15 05:25:42;;;;;;;3.25;2.95;;;10.60;99.90;;;;;;5112695;28;20047;-56
2023/05/15 05:28:08;;;;;;;2.95;2.55;;;10.70;99.90;;;;;;5094468;28;20019;-58
2023/05/15 05:30:33;;;;;;;2.70;2.50;;;10.70;99.00;;;;;;5112696;28;20026;-59
2023/05/15 05:32:59;;;;;;;2.63;2.42;;;10.70;99.70;;;;;;5111907;28;20047;-57
2023/05/15 05:35:26;;;;;;;3.35;3.05;;;10.70;99.90;;;;;;5112168;28;20027;-57
2023/05/15 05:37:52;;;;;;;3.05;2.75;;;10.80;99.80;;;;;;5091577;28;20035;-57
2023/05/15 05:40:17;;;;;;;3.03;2.53;;;10.90;98.60;;;;;;5090428;28;20587;-58
2023/05/15 05:42:43;;;;;;;5.13;2.40;;;11.00;99.10;;;;;;5090980;28;20054;-57
2023/05/15 05:45:10;;;;;;;6.20;3.40;;;11.00;97.70;;;;;;5089726;28;20487;-54
2023/05/15 05:47:36;;;;;;;7.10;4.07;;;11.10;99.00;;;;;;5090974;28;20024;-59
2023/05/15 05:50:02;;;;;;;2.70;2.50;;;11.20;97.60;;;;;;5090841;28;20016;-56
2023/05/15 05:52:28;;;;;;;3.10;2.80;;;11.20;97.10;;;;;;5071286;28;20047;-59
2023/05/15 05:54:53;;;;;;;2.63;2.45;;;11.20;97.50;;;;;;5089490;28;20032;-58
2023/05/15 05:57:19;;;;;;;3.80;2.22;;;11.20;96.00;;;;;;5088723;28;20221;-58
2023/05/15 05:59:51;;;;;;;2.00;1.90;;;11.20;94.50;;;;;;5084343;28;20762;-59
2023/05/15 06:02:17;;;;;;;2.33;2.17;;;11.40;95.10;;;;;;5086778;28;20161;-59
2023/05/15 06:04:43;;;;;;;3.70;2.00;;;11.60;93.20;;;;;;5086879;28;20127;-59
2023/05/15 06:07:08;;;;;;;3.60;2.13;;;11.70;91.90;;;;;;5087534;28;20020;-60
2023/05/15 06:09:34;;;;;;;2.00;1.90;;;11.80;88.50;;;;;;5087368;28;20498;-59
2023/05/15 06:12:03;;;;;;;3.00;2.25;;;11.90;87.80;;;;;;5087679;28;20024;-59
2023/05/15 06:14:29;;;;;;;2.60;1.98;;;11.70;77.40;;;;;;5087797;28;20391;-58
2023/05/15 06:16:54;;;;;;;1.90;1.80;;;11.60;87.10;;;;;;5086448;28;20020;-59
2023/05/15 06:19:20;;;;;;;4.32;2.40;;;11.60;85.70;;;;;;5087666;28;20055;-55
2023/05/15 06:21:46;;;;;;;2.92;2.63;;;11.70;89.80;;;;;;5087477;28;20068;-60
2023/05/15 06:24:12;;;;;;;2.50;2.30;;;11.70;83.90;;;;;;5087629;28;20054;-58
2023/05/15 06:26:44;;;;;;;2.38;2.00;;;11.60;79.40;;;;;;5087427;28;20074;-59
2023/05/15 06:29:10;;;;;;;4.00;2.15;;;11.80;83.20;;;;;;5087525;28;20424;-58
2023/05/15 06:31:35;;;;;;;1.80;1.70;;;11.80;84.60;;;;;;5087564;28;20057;-58
2023/05/15 06:34:01;;;;;;;1.98;1.88;;;11.70;85.00;;;;;;5086100;28;20070;-59
2023/05/15 06:36:27;;;;;;;3.03;2.25;;;11.80;80.50;;;;;;5087497;28;20032;-59
2023/05/15 06:38:53;;;;;;;3.47;2.53;;;11.90;84.50;;;;;;5087150;28;20564;-59
2023/05/15 06:41:18;;;;;;;3.10;1.90;;;12.00;85.20;;;;;;5087327;28;20027;-59
2023/05/15 06:43:44;;;;;;;4.90;1.90;;;12.00;79.30;;;;;;5087144;28;20024;-60
2023/05/15 06:46:09;;;;;;;5.43;2.20;;;12.20;81.80;;;;;;5087187;28;20017;-60
2023/05/15 06:48:35;;;;;;;2.20;2.00;;;12.40;74.60;;;;;;5089464;28;20074;-60
2023/05/15 06:51:01;;;;;;;1.63;1.52;;;12.50;76.60;;;;;;5086619;28;20072;-58
2023/05/15 06:53:28;;;;;;;1.40;1.30;;;12.70;43.60;;;;;;5086908;28;20479;-59
2023/05/15 06:55:54;;;;;;;9.38;6.35;;;13.00;40.90;;;;;;5087190;28;20383;-58
2023/05/15 06:58:20;;;;;;;2.53;1.50;;;12.80;52.40;;;;;;5086685;28;20044;-59
2023/05/15 07:00:45;;;;;;;1.80;1.70;;;12.90;58.60;;;;;;5087051;28;20052;-57
2023/05/15 07:03:13;;;;;;;3.20;1.42;;;12.50;62.40;;;;;;5086892;28;20520;-57
2023/05/15 07:05:38;;;;;;;2.25;1.13;;;12.10;53.20;;;;;;5086953;28;20023;-59
2023/05/15 07:08:04;;;;;;;1.30;1.20;;;12.20;66.40;;;;;;5086909;28;20441;-58
2023/05/15 07:10:30;;;;;;;2.55;1.40;;;12.20;62.40;;;;;;5077618;28;20082;-59
2023/05/15 07:12:56;;;;;;;2.05;1.75;;;12.10;79.40;;;;;;5073061;28;20033;-59
2023/05/15 07:15:21;;;;;;;1.92;1.83;;;12.10;76.00;;;;;;5073372;28;20107;-58
2023/05/15 07:17:47;;;;;;;1.50;1.40;;;11.90;84.30;;;;;;5072859;28;20036;-59
2023/05/15 07:20:13;;;;;;;1.63;1.52;;;11.90;87.10;;;;;;5073248;28;20071;-59
2023/05/15 07:22:44;;;;;;;1.27;1.17;;;11.80;89.60;;;;;;5072800;28;20029;-59
2023/05/15 07:25:10;;;;;;;1.95;1.58;;;11.80;88.80;;;;;;5073166;28;20078;-59
2023/05/15 07:27:36;;;;;;;1.70;1.60;;;11.70;92.20;;;;;;5073151;28;20025;-58
2023/05/15 07:30:02;;;;;;;3.95;2.70;;;11.60;91.00;;;;;;5072037;28;20020;-59
2023/05/15 07:32:29;;;;;;;1.80;1.70;;;11.40;96.30;;;;;;5072894;28;20468;-59
2023/05/15 07:34:55;;;;;;;1.50;1.40;;;11.70;96.50;;;;;;5072956;28;20066;-59
2023/05/15 07:37:22;;;;;;;1.60;1.50;;;11.70;90.90;;;;;;5072582;28;20396;-59
2023/05/15 07:39:47;;;;;;;1.52;1.40;;;11.50;93.50;;;;;;5072916;28;20028;-59
2023/05/15 07:42:13;;;;;;;1.60;1.50;;;11.70;95.80;;;;;;5073017;28;20028;-57
2023/05/15 07:44:39;;;;;;;1.27;1.20;;;11.70;93.20;;;;;;5071426;28;20035;-60
2023/05/15 07:47:05;;;;;;;1.45;1.30;;;11.90;92.00;;;;;;5072507;28;20146;-58
2023/05/15 07:49:30;;;;;;;4.25;1.55;;;11.90;84.70;;;;;;5072705;28;20063;-59
2023/05/15 07:51:56;;;;;;;1.98;1.33;;;11.90;86.10;;;;;;5072324;28;20050;-58
2023/05/15 07:54:22;;;;;;;9.55;1.30;;;11.80;91.50;;;;;;5072456;28;20024;-58
2023/05/15 07:56:48;;;;;;;2.80;2.22;;;11.80;93.50;;;;;;5071170;28;20036;-59
2023/05/15 07:59:14;;;;;;;1.38;1.27;;;11.90;94.10;;;;;;5072083;28;20515;-57
2023/05/15 08:01:39;;;;;;;2.70;1.20;;;12.00;92.80;;;;;;5072375;28;20108;-60
2023/05/15 08:04:06;;;;;;;1.80;1.30;;;12.00;91.60;;;;;;5070941;28;20078;-59
2023/05/15 08:06:32;;;;;;;2.85;2.40;;;12.10;91.00;;;;;;5070724;28;20035;-59
2023/05/15 08:08:58;;;;;;;1.80;1.70;;;11.90;91.00;;;;;;5072167;28;20025;-60
2023/05/15 08:11:24;;;;;;;1.70;1.50;;;12.00;91.90;;;;;;5072289;28;20025;-59
2023/05/15 08:13:49;;;;;;;6.53;3.00;;;12.10;91.90;;;;;;5071940;28;20032;-59
2023/05/15 08:16:15;;;;;;;4.80;2.92;;;12.30;94.10;;;;;;5072168;28;20387;-58
2023/05/15 08:18:41;;;;;;;1.73;1.63;;;12.60;89.50;;;;;;5071798;28;20027;-58
2023/05/15 08:21:07;;;;;;;2.33;1.90;;;12.70;43.00;;;;;;5071136;28;20475;-60
2023/05/15 08:23:32;;;;;;;5.70;2.20;;;12.80;56.50;;;;;;5070529;28;20495;-58
2023/05/15 08:26:01;;;;;;;2.70;2.50;;;12.80;52.40;;;;;;5071904;28;20025;-58
2023/05/15 08:28:26;;;;;;;3.45;2.33;;;13.10;59.40;;;;;;5071853;28;20024;-60
2023/05/15 08:30:52;;;;;;;2.42;2.03;;;13.10;44.90;;;;;;5071978;28;20040;-59
2023/05/15 08:33:18;;;;;;;2.83;1.80;;;13.20;53.70;;;;;;5072344;28;20031;-59
2023/05/15 08:35:43;;;;;;;1.80;1.70;;;13.30;27.50;;;;;;5071402;28;20063;-59
2023/05/15 08:38:09;;;;;;;2.35;1.85;;;13.30;32.10;;;;;;5071516;28;20032;-60
2023/05/15 08:40:35;;;;;;;3.40;1.70;;;13.00;38.70;;;;;;5071372;28;20484;-58
2023/05/15 08:43:13;;;;;;;2.03;1.67;;;12.80;23.60;;;;;;5071696;28;20016;-58
2023/05/15 08:45:40;;;;;;;1.70;1.60;;;12.80;11.70;;;;;;5072406;28;20224;-59
2023/05/15 08:48:13;;;;;;;2.17;2.08;;;12.90;35.90;;;;;;5071689;28;20012;-59
2023/05/15 08:50:39;;;;;;;2.90;2.60;;;13.20;25.00;;;;;;5071027;28;20036;-60
2023/05/15 08:53:05;;;;;;;2.75;2.10;;;13.30;32.50;;;;;;5071543;28;20024;-59
2023/05/15 08:55:31;;;;;;;3.25;2.00;;;13.70;34.10;;;;;;5069907;28;20017;-58
2023/05/15 08:57:58;;;;;;;2.40;2.20;;;13.60;19.20;;;;;;5071161;28;20041;-59
2023/05/15 09:00:28;;;;;;;6.13;4.85;;;13.50;11.20;;;;;;5071090;28;20055;-59
2023/05/15 09:02:54;;;;;;;1.73;1.63;;;13.40;51.40;;;;;;5070960;28;20013;-59
2023/05/15 09:05:20;;;;;;;6.45;2.78;;;13.20;27.50;;;;;;5071165;28;20150;-59
2023/05/15 09:07:46;;;;;;;2.30;2.17;;;13.20;34.70;;;;;;5071090;28;20024;-59
2023/05/15 09:10:13;;;;;;;1.70;1.60;;;13.00;63.70;;;;;;5071148;28;20105;-59
2023/05/15 09:12:45;;;;;;;2.13;1.95;;;12.80;13.40;;;;;;5069978;28;20056;-59
2023/05/15 09:15:12;;;;;;;1.58;1.48;;;12.70;24.30;;;;;;5071125;28;20555;-58
2023/05/15 09:17:39;;;;;;;1.50;1.40;;;12.70;34.80;;;;;;5070458;28;20433;-58
2023/05/15 09:20:05;;;;;;;1.80;1.67;;;12.90;42.90;;;;;;5070862;28;20073;-59
2023/05/15 09:22:35;;;;;;;1.60;1.50;;;13.10;66.70;;;;;;5070767;28;20556;-59
2023/05/15 09:25:02;;;;;;;1.90;1.75;;;13.40;19.30;;;;;;5070845;28;20028;-59
2023/05/15 09:27:27;;;;;;;1.70;1.60;;;13.30;13.30;;;;;;5069045;28;20024;-58
2023/05/15 09:29:55;;;;;;;1.67;1.58;;;13.40;13.10;;;;;;5070840;28;20036;-59
2023/05/15 09:32:21;;;;;;;1.90;1.80;;;13.00;35.30;;;;;;5070648;28;20396;-59
2023/05/15 09:34:46;;;;;;;1.77;1.67;;;12.90;65.50;;;;;;5070514;28;20035;-59
2023/05/15 09:37:28;;;;;;;59.13;18.10;;;13.20;18.40;;;;;;5070649;28;20090;-59
2023/05/15 09:39:54;;;;;;;10.65;4.97;;;13.20;48.30;;;;;;5070431;28;20038;-58
2023/05/15 09:42:23;;;;;;;2.78;2.58;;;13.40;42.40;;;;;;5070597;28;20021;-60
2023/05/15 09:44:49;;;;;;;1.48;1.35;;;13.50;42.20;;;;;;5070385;28;20017;-60
2023/05/15 09:47:17;;;;;;;1.77;1.67;;;13.60;4.40;;;;;;5069276;28;20059;-59
2023/05/15 09:49:44;;;;;;;5.53;3.60;;;13.20;16.20;;;;;;5070419;28;20111;-59
2023/05/15 09:52:10;;;;;;;2.40;2.20;;;13.10;25.90;;;;;;5070498;28;20020;-59
2023/05/15 09:54:36;;;;;;;6.75;5.15;;;12.80;46.90;;;;;;5070797;28;20025;-59
2023/05/15 09:57:10;;;;;;;5.18;3.58;;;12.50;58.20;;;;;;5070402;28;20021;-60
2023/05/15 09:59:41;;;;;;;3.85;2.85;;;12.50;48.80;;;;;;5070010;28;20044;-58
2023/05/15 10:02:07;;;;;;;4.30;2.53;;;12.40;40.10;;;;;;5070341;28;20063;-56
2023/05/15 10:04:35;;;;;;;2.10;2.00;;;12.20;62.70;;;;;;5070020;28;20095;-59
2023/05/15 10:07:01;;;;;;;3.00;2.63;;;12.40;60.50;;;;;;5070839;28;20099;-59
2023/05/15 10:09:32;;;;;;;2.40;2.15;;;12.60;51.30;;;;;;5071053;28;20449;-58
2023/05/15 10:11:58;;;;;;;3.42;2.17;;;12.70;27.80;;;;;;5070202;28;20087;-58
2023/05/15 10:14:26;;;;;;;2.10;2.00;;;12.90;21.20;;;;;;5070284;28;20415;-59
2023/05/15 10:16:54;;;;;;;4.15;3.50;;;13.20;28.80;;;;;;5070085;28;20032;-59
2023/05/15 10:19:22;;;;;;;4.13;3.22;;;13.50;21.10;;;;;;5070109;28;20051;-58
2023/05/15 10:21:50;;;;;;;4.80;2.20;;;13.40;18.20;;;;;;5069847;28;20024;-59
2023/05/15 10:24:17;;;;;;;5.40;2.95;;;13.30;1.00;;;;;;5070228;28;20017;-59
2023/05/15 10:26:43;;;;;;;2.60;2.20;;;13.10;1.00;;;;;;5070016;28;20030;-59
2023/05/15 10:29:11;;;;;;;3.47;2.90;;;13.20;37.10;;;;;;5070150;28;20446;-59
2023/05/15 10:32:04;;;;;;;3.05;2.65;;;13.10;18.70;;;;;;5069938;28;20028;-59
2023/05/15 10:34:31;;;;;;;6.70;2.40;;;13.10;1.00;;;;;;5069991;28;20025;-59
2023/05/15 10:36:57;;;;;;;2.55;2.35;;;13.00;1.00;;;;;;5068767;28;20020;-59
2023/05/15 10:39:23;;;;;;;2.72;2.45;;;13.20;1.00;;;;;;5069929;28;20020;-58
2023/05/15 10:41:50;;;;;;;3.55;2.63;;;13.50;1.00;;;;;;5069679;28;20048;-59
2023/05/15 10:44:16;;;;;;;2.40;2.30;;;13.40;1.00;;;;;;5070431;28;20025;-56
2023/05/15 10:46:46;;;;;;;3.13;2.53;;;13.60;1.00;;;;;;5073413;28;20479;-60
2023/05/15 10:49:12;;;;;;;3.25;2.85;;;13.70;1.00;;;;;;5074597;28;20040;-57
2023/05/15 10:51:39;;;;;;;2.70;2.33;;;13.30;1.00;;;;;;5074315;28;20103;-58
2023/05/15 10:54:05;;;;;;;3.42;3.10;;;13.30;1.00;;;;;;5073542;28;20438;-59
2023/05/15 10:56:32;;;;;;;6.60;2.50;;;13.10;10.10;;;;;;5073691;28;20048;-59
2023/05/15 10:59:07;;;;;;;3.35;2.80;;;13.10;12.40;;;;;;5073543;28;20038;-58
2023/05/15 11:01:38;;;;;;;3.72;3.25;;;13.10;36.40;;;;;;5073619;28;20017;-59
2023/05/15 11:04:15;;;;;;;2.42;2.28;;;13.10;28.90;;;;;;5073330;28;20094;-58
2023/05/15 11:06:43;;;;;;;3.10;2.47;;;13.40;22.40;;;;;;5074466;28;20436;-59
2023/05/15 11:09:20;;;;;;;3.85;3.55;;;13.40;1.00;;;;;;5074989;28;20054;-60
2023/05/15 11:12:00;;;;;;;2.90;2.70;;;13.20;1.00;;;;;;5074638;28;20044;-56
2023/05/15 11:14:26;;;;;;;3.28;2.90;;;13.10;28.80;;;;;;5074094;28;20028;-59
2023/05/15 11:16:52;;;;;;;4.07;2.97;;;13.00;26.60;;;;;;5072462;28;20028;-59
2023/05/15 11:19:21;;;;;;;3.72;3.42;;;13.30;21.20;;;;;;5074250;28;20387;-58
2023/05/15 11:21:52;;;;;;;5.40;3.70;;;13.60;1.00;;;;;;5073509;28;20032;-60
2023/05/15 11:24:18;;;;;;;3.63;3.33;;;13.80;1.00;;;;;;5073965;28;20017;-58
2023/05/15 11:26:43;;;;;;;15.27;3.53;;;14.50;1.00;;;;;;5074152;28;20359;-59
2023/05/15 11:29:18;;;;;;;3.90;3.50;;;15.30;1.00;;;;;;5074060;28;20029;-58
2023/05/15 11:31:44;;;;;;;3.08;2.78;;;16.10;99.90;;;;;;5073941;28;20028;-59
2023/05/15 11:34:10;;;;;;;3.10;2.55;;;16.30;99.90;;;;;;5073943;28;20112;-59
2023/05/15 11:36:38;;;;;;;3.80;2.80;;;15.90;1.00;;;;;;5074033;28;20051;-59
2023/05/15 11:39:10;;;;;;;3.63;3.33;;;16.20;1.00;;;;;;5063146;28;20036;-55
2023/05/15 11:41:36;;;;;;;2.90;2.70;;;15.80;99.90;;;;;;5062524;28;20020;-56
2023/05/15 11:44:02;;;;;;;3.00;2.80;;;15.40;99.90;;;;;;5062551;28;20078;-60
2023/05/15 11:46:29;;;;;;;5.85;3.20;;;15.60;99.90;;;;;;5061467;28;20048;-59
2023/05/15 11:48:55;;;;;;;3.22;2.75;;;16.00;99.90;;;;;;5042803;28;20033;-58
2023/05/15 11:51:25;;;;;;;3.42;2.70;;;16.70;99.90;;;;;;5041014;28;20107;-59
2023/05/15 11:53:54;;;;;;;5.85;2.55;;;16.90;99.90;;;;;;5041314;28;20056;-60
2023/05/15 11:56:21;;;;;;;4.40;3.30;;;16.90;1.00;;;;;;5043411;28;20036;-60
2023/05/15 11:58:58;;;;;;;2.30;2.10;;;16.50;42.00;;;;;;5042912;28;20090;-60
2023/05/15 12:01:24;;;;;;;5.55;2.78;;;16.70;99.90;;;;;;5043010;28;20040;-60
2023/05/15 12:03:50;;;;;;;3.05;2.58;;;16.80;4.50;;;;;;5043191;28;20596;-59
2023/05/15 12:06:16;;;;;;;2.78;2.45;;;17.00;99.90;;;;;;5043123;28;20020;-59
2023/05/15 12:08:42;;;;;;;3.95;2.35;;;17.50;99.90;;;;;;5042009;28;20094;-60
2023/05/15 12:11:09;;;;;;;3.45;3.15;;;18.90;1.00;;;;;;5041270;28;20048;-60
2023/05/15 12:13:34;;;;;;;2.30;2.10;;;20.00;99.90;;;;;;5041863;28;20115;-60
2023/05/15 12:16:02;;;;;;;6.22;3.03;;;19.60;1.00;;;;;;5041520;28;20434;-59
2023/05/15 12:18:29;;;;;;;5.10;3.78;;;18.80;90.30;;;;;;5042383;28;20088;-60
2023/05/15 12:20:55;;;;;;;3.60;2.60;;;18.10;99.90;;;;;;5042953;28;20048;-60
2023/05/15 12:23:24;;;;;;;6.25;2.60;;;17.40;31.90;;;;;;5041601;28;20037;-60
2023/05/15 12:25:56;;;;;;;3.15;2.38;;;16.60;65.00;;;;;;5041959;28;20588;-60
2023/05/15 12:28:22;;;;;;;3.85;3.28;;;16.10;99.90;;;;;;5043547;28;20037;-59
2023/05/15 12:30:49;;;;;;;3.38;3.08;;;15.60;1.00;;;;;;5042680;28;20865;-59
2023/05/15 12:33:15;;;;;;;3.20;2.80;;;15.40;99.90;;;;;;5042180;28;20033;-57
2023/05/15 12:35:43;;;;;;;3.85;2.83;;;15.50;1.00;;;;;;5041411;28;20102;-60
2023/05/15 12:38:14;;;;;;;4.25;2.70;;;15.60;99.90;;;;;;5041785;28;20032;-60
2023/05/15 12:40:42;;;;;;;5.22;2.45;;;15.80;99.90;;;;;;5040676;28;20365;-60
2023/05/15 12:43:09;;;;;;;3.25;2.30;;;16.30;99.90;;;;;;5041431;28;20029;-60
2023/05/15 12:45:37;;;;;;;5.88;2.80;;;17.00;1.00;;;;;;5041960;28;20017;-60
2023/05/15 12:48:03;;;;;;;3.08;2.88;;;17.50;4.10;;;;;;5041372;28;20526;-59
2023/05/15 12:50:32;;;;;;;2.63;2.42;;;17.40;1.00;;;;;;5041673;28;20082;-60